sensor_id;sensor_type;location;lat;lon;timestamp;pressure;altitude;pressure_sealevel;temperature;humidity
74678;BME280;63207;56.328;43.994;2022-09-03T00:02:14;100758.84;;;22.19;48.06
74678;BME280;63207;56.328;43.994;2022-09-03T00:10:53;100764.25;;;22.17;48.27
74678;BME280;63207;56.328;43.994;2022-09-03T00:13:27;100764.25;;;22.17;48.20
74678;BME280;63207;56.328;43.994;2022-09-03T00:15:56;100766.88;;;22.17;48.29
74678;BME280;63207;56.328;43.994;2022-09-03T00:18:29;100766.88;;;22.17;48.24
74678;BME280;63207;56.328;43.994;2022-09-03T00:21:00;100773.97;;;22.17;48.31
74678;BME280;63207;56.328;43.994;2022-09-03T00:23:35;100773.97;;;22.17;48.33
74678;BME280;63207;56.328;43.994;2022-09-03T00:29:00;100781.88;;;22.17;48.34
74678;BME280;63207;56.328;43.994;2022-09-03T00:31:38;100788.97;;;22.16;48.39
74678;BME280;63207;56.328;43.994;2022-09-03T00:34:31;100793.38;;;22.15;48.47
74678;BME280;63207;56.328;43.994;2022-09-03T00:36:59;100800.31;;;22.17;48.46
74678;BME280;63207;56.328;43.994;2022-09-03T00:39:26;100804.75;;;22.16;48.38
74678;BME280;63207;56.328;43.994;2022-09-03T00:56:11;100811.13;;;22.13;48.54
74678;BME280;63207;56.328;43.994;2022-09-03T00:58:58;100810.31;;;22.13;48.46
74678;BME280;63207;56.328;43.994;2022-09-03T01:18:24;100823.66;;;22.11;48.53
74678;BME280;63207;56.328;43.994;2022-09-03T01:21:25;100826.44;;;22.10;48.62
74678;BME280;63207;56.328;43.994;2022-09-03T01:40:29;100851.28;;;22.07;48.58
74678;BME280;63207;56.328;43.994;2022-09-03T01:42:52;100850.28;;;22.08;48.81
74678;BME280;63207;56.328;43.994;2022-09-03T01:45:54;100856.53;;;22.07;48.78
74678;BME280;63207;56.328;43.994;2022-09-03T01:51:30;100855.88;;;22.05;48.69
74678;BME280;63207;56.328;43.994;2022-09-03T01:57:17;100865.56;;;22.05;48.83
74678;BME280;63207;56.328;43.994;2022-09-03T02:02:42;100870.84;;;22.05;48.78
74678;BME280;63207;56.328;43.994;2022-09-03T02:05:16;100868.34;;;22.03;48.96
74678;BME280;63207;56.328;43.994;2022-09-03T02:08:04;100870.16;;;22.03;48.88
74678;BME280;63207;56.328;43.994;2022-09-03T02:10:40;100881.53;;;22.03;48.94
74678;BME280;63207;56.328;43.994;2022-09-03T02:13:27;100885.00;;;22.04;48.82
74678;BME280;63207;56.328;43.994;2022-09-03T02:15:59;100885.00;;;22.04;48.95
74678;BME280;63207;56.328;43.994;2022-09-03T02:18:37;100889.44;;;22.03;48.91
74678;BME280;63207;56.328;43.994;2022-09-03T02:21:06;100894.69;;;22.03;49.02
74678;BME280;63207;56.328;43.994;2022-09-03T02:23:32;100887.66;;;22.04;48.93
74678;BME280;63207;56.328;43.994;2022-09-03T02:26:00;100893.88;;;22.03;49.05
74678;BME280;63207;56.328;43.994;2022-09-03T02:28:28;100894.69;;;22.03;48.98
74678;BME280;63207;56.328;43.994;2022-09-03T02:30:55;100899.13;;;22.03;48.98
74678;BME280;63207;56.328;43.994;2022-09-03T02:33:21;100907.03;;;22.03;49.03
74678;BME280;63207;56.328;43.994;2022-09-03T02:35:47;100904.41;;;22.03;48.98
74678;BME280;63207;56.328;43.994;2022-09-03T02:38:32;100900.81;;;22.04;49.05
74678;BME280;63207;56.328;43.994;2022-09-03T02:40:58;100901.63;;;22.04;48.89
74678;BME280;63207;56.328;43.994;2022-09-03T02:46:44;100914.94;;;22.03;48.97
74678;BME280;63207;56.328;43.994;2022-09-03T02:49:13;100921.88;;;22.04;49.09
74678;BME280;63207;56.328;43.994;2022-09-03T02:51:41;100920.22;;;22.03;49.15
74678;BME280;63207;56.328;43.994;2022-09-03T02:54:08;100929.94;;;22.02;49.16
74678;BME280;63207;56.328;43.994;2022-09-03T02:56:35;100936.03;;;22.03;49.09
74678;BME280;63207;56.328;43.994;2022-09-03T02:59:03;100938.66;;;22.03;49.13
74678;BME280;63207;56.328;43.994;2022-09-03T03:01:29;100941.28;;;22.03;49.05
74678;BME280;63207;56.328;43.994;2022-09-03T03:03:55;100958.91;;;22.02;49.18
74678;BME280;63207;56.328;43.994;2022-09-03T03:06:21;100961.53;;;22.02;49.13
74678;BME280;63207;56.328;43.994;2022-09-03T03:08:48;100971.94;;;22.04;49.09
74678;BME280;63207;56.328;43.994;2022-09-03T03:11:18;100978.16;;;22.03;49.08
74678;BME280;63207;56.328;43.994;2022-09-03T03:13:45;100978.16;;;22.03;49.07
74678;BME280;63207;56.328;43.994;2022-09-03T03:16:12;100986.06;;;22.03;49.25
74678;BME280;63207;56.328;43.994;2022-09-03T03:18:56;100988.72;;;22.03;49.18
74678;BME280;63207;56.328;43.994;2022-09-03T03:21:22;100987.06;;;22.02;49.14
74678;BME280;63207;56.328;43.994;2022-09-03T03:23:48;100994.97;;;22.02;49.26
74678;BME280;63207;56.328;43.994;2022-09-03T03:26:17;100993.16;;;22.02;49.32
74678;BME280;63207;56.328;43.994;2022-09-03T03:28:44;100994.97;;;22.02;49.26
74678;BME280;63207;56.328;43.994;2022-09-03T03:31:19;100998.56;;;22.01;49.29
74678;BME280;63207;56.328;43.994;2022-09-03T03:33:55;100996.09;;;21.99;49.31
74678;BME280;63207;56.328;43.994;2022-09-03T03:36:40;101004.81;;;22.00;49.16
74678;BME280;63207;56.328;43.994;2022-09-03T03:39:05;101003.16;;;21.99;49.36
74678;BME280;63207;56.328;43.994;2022-09-03T03:41:33;101004.00;;;21.99;49.35
74678;BME280;63207;56.328;43.994;2022-09-03T03:44:02;101004.94;;;21.98;49.28
74678;BME280;63207;56.328;43.994;2022-09-03T03:46:31;101007.59;;;21.98;49.36
74678;BME280;63207;56.328;43.994;2022-09-03T03:48:58;101007.59;;;21.98;49.42
74678;BME280;63207;56.328;43.994;2022-09-03T03:51:24;101019.94;;;21.98;49.36
74678;BME280;63207;56.328;43.994;2022-09-03T03:53:54;101029.50;;;21.99;49.33
74678;BME280;63207;56.328;43.994;2022-09-03T03:56:21;101019.94;;;21.98;49.18
74678;BME280;63207;56.328;43.994;2022-09-03T03:58:48;101025.19;;;21.98;49.39
74678;BME280;63207;56.328;43.994;2022-09-03T04:01:16;101021.75;;;21.97;49.45
74678;BME280;63207;56.328;43.994;2022-09-03T04:03:42;101018.28;;;21.97;49.40
74678;BME280;63207;56.328;43.994;2022-09-03T04:06:10;101036.72;;;21.97;49.47
74678;BME280;63207;56.328;43.994;2022-09-03T04:08:39;101037.53;;;21.97;49.38
74678;BME280;63207;56.328;43.994;2022-09-03T04:11:09;101035.88;;;21.96;49.45
74678;BME280;63207;56.328;43.994;2022-09-03T04:13:37;101036.72;;;21.97;49.46
74678;BME280;63207;56.328;43.994;2022-09-03T04:18:31;101039.34;;;21.97;49.60
74678;BME280;63207;56.328;43.994;2022-09-03T04:21:06;101052.53;;;21.97;49.54
74678;BME280;63207;56.328;43.994;2022-09-03T04:23:52;101046.41;;;21.96;49.57
74678;BME280;63207;56.328;43.994;2022-09-03T04:26:21;101053.47;;;21.96;49.48
74678;BME280;63207;56.328;43.994;2022-09-03T04:28:47;101050.84;;;21.96;49.49
74678;BME280;63207;56.328;43.994;2022-09-03T04:31:17;101051.84;;;21.94;49.57
74678;BME280;63207;56.328;43.994;2022-09-03T04:33:43;101046.56;;;21.94;49.51
74678;BME280;63207;56.328;43.994;2022-09-03T04:36:12;101052.66;;;21.95;49.61
74678;BME280;63207;56.328;43.994;2022-09-03T04:38:40;101065.84;;;21.95;49.50
74678;BME280;63207;56.328;43.994;2022-09-03T04:41:09;101059.75;;;21.94;49.60
74678;BME280;63207;56.328;43.994;2022-09-03T04:43:36;101065.00;;;21.94;49.59
74678;BME280;63207;56.328;43.994;2022-09-03T04:46:04;101060.56;;;21.95;49.47
74678;BME280;63207;56.328;43.994;2022-09-03T04:48:32;101057.09;;;21.94;49.61
74678;BME280;63207;56.328;43.994;2022-09-03T04:53:32;101063.31;;;21.93;49.56
74678;BME280;63207;56.328;43.994;2022-09-03T04:55:58;101064.19;;;21.94;49.59
74678;BME280;63207;56.328;43.994;2022-09-03T04:58:24;101065.97;;;21.93;49.61
74678;BME280;63207;56.328;43.994;2022-09-03T05:00:50;101064.31;;;21.92;49.57
74678;BME280;63207;56.328;43.994;2022-09-03T05:03:16;101065.97;;;21.93;49.62
74678;BME280;63207;56.328;43.994;2022-09-03T05:05:44;101066.94;;;21.92;49.69
74678;BME280;63207;56.328;43.994;2022-09-03T05:08:15;101078.31;;;21.93;49.58
74678;BME280;63207;56.328;43.994;2022-09-03T05:10:42;101066.94;;;21.92;49.67
74678;BME280;63207;56.328;43.994;2022-09-03T05:13:08;101077.50;;;21.92;49.78
74678;BME280;63207;56.328;43.994;2022-09-03T05:15:52;101084.41;;;21.93;49.75
74678;BME280;63207;56.328;43.994;2022-09-03T05:18:18;101081.94;;;21.92;49.83
74678;BME280;63207;56.328;43.994;2022-09-03T05:20:44;101095.09;;;21.92;49.66
74678;BME280;63207;56.328;43.994;2022-09-03T05:23:10;101095.09;;;21.92;49.72
74678;BME280;63207;56.328;43.994;2022-09-03T05:25:36;101094.28;;;21.91;49.72
74678;BME280;63207;56.328;43.994;2022-09-03T05:28:02;101096.06;;;21.91;49.86
74678;BME280;63207;56.328;43.994;2022-09-03T05:30:28;101102.19;;;21.91;49.77
74678;BME280;63207;56.328;43.994;2022-09-03T05:32:55;101105.78;;;21.90;49.78
74678;BME280;63207;56.328;43.994;2022-09-03T05:35:21;101106.59;;;21.91;49.78
74678;BME280;63207;56.328;43.994;2022-09-03T05:37:47;101107.44;;;21.91;49.71
74678;BME280;63207;56.328;43.994;2022-09-03T05:40:13;101111.03;;;21.90;49.82
74678;BME280;63207;56.328;43.994;2022-09-03T05:42:39;101108.41;;;21.90;49.84
74678;BME280;63207;56.328;43.994;2022-09-03T05:45:07;101111.84;;;21.91;49.95
74678;BME280;63207;56.328;43.994;2022-09-03T05:47:38;101121.56;;;21.90;49.90
74678;BME280;63207;56.328;43.994;2022-09-03T05:50:06;101122.56;;;21.89;49.91
74678;BME280;63207;56.328;43.994;2022-09-03T05:52:34;101123.38;;;21.90;49.88
74678;BME280;63207;56.328;43.994;2022-09-03T05:55:00;101143.63;;;21.89;49.81
74678;BME280;63207;56.328;43.994;2022-09-03T05:57:50;101134.91;;;21.89;49.90
74678;BME280;63207;56.328;43.994;2022-09-03T06:00:16;101134.06;;;21.88;49.89
74678;BME280;63207;56.328;43.994;2022-09-03T06:02:51;101139.31;;;21.88;49.94
74678;BME280;63207;56.328;43.994;2022-09-03T06:05:18;101150.72;;;21.89;49.96
74678;BME280;63207;56.328;43.994;2022-09-03T06:07:44;101146.41;;;21.88;49.90
74678;BME280;63207;56.328;43.994;2022-09-03T06:10:15;101144.59;;;21.88;49.94
74678;BME280;63207;56.328;43.994;2022-09-03T06:12:42;101149.03;;;21.88;49.90
74678;BME280;63207;56.328;43.994;2022-09-03T06:15:15;101148.19;;;21.87;49.89
74678;BME280;63207;56.328;43.994;2022-09-03T06:17:41;101146.56;;;21.86;49.87
74678;BME280;63207;56.328;43.994;2022-09-03T06:20:08;101148.19;;;21.87;49.92
74678;BME280;63207;56.328;43.994;2022-09-03T06:22:33;101148.19;;;21.87;49.95
74678;BME280;63207;56.328;43.994;2022-09-03T06:24:59;101153.47;;;21.87;50.02
74678;BME280;63207;56.328;43.994;2022-09-03T06:27:27;101157.75;;;21.88;49.93
74678;BME280;63207;56.328;43.994;2022-09-03T06:29:53;101157.75;;;21.88;49.94
74678;BME280;63207;56.328;43.994;2022-09-03T06:32:19;101153.47;;;21.87;50.02
74678;BME280;63207;56.328;43.994;2022-09-03T06:34:45;101154.47;;;21.86;50.02
74678;BME280;63207;56.328;43.994;2022-09-03T06:37:10;101163.19;;;21.87;50.12
74678;BME280;63207;56.328;43.994;2022-09-03T06:39:36;101162.34;;;21.86;49.94
74678;BME280;63207;56.328;43.994;2022-09-03T06:42:02;101162.34;;;21.86;49.99
74678;BME280;63207;56.328;43.994;2022-09-03T06:44:34;101165.00;;;21.86;49.96
74678;BME280;63207;56.328;43.994;2022-09-03T06:47:00;101153.59;;;21.86;49.99
74678;BME280;63207;56.328;43.994;2022-09-03T06:49:26;101158.88;;;21.86;50.00
74678;BME280;63207;56.328;43.994;2022-09-03T06:51:51;101150.97;;;21.86;50.08
74678;BME280;63207;56.328;43.994;2022-09-03T06:54:17;101152.66;;;21.87;49.98
74678;BME280;63207;56.328;43.994;2022-09-03T06:57:01;101158.03;;;21.85;50.05
74678;BME280;63207;56.328;43.994;2022-09-03T06:59:28;101158.03;;;21.85;50.04
74678;BME280;63207;56.328;43.994;2022-09-03T07:01:54;101159.03;;;21.84;50.12
74678;BME280;63207;56.328;43.994;2022-09-03T07:04:22;101156.41;;;21.84;50.11
74678;BME280;63207;56.328;43.994;2022-09-03T07:06:49;101164.28;;;21.84;50.11
74678;BME280;63207;56.328;43.994;2022-09-03T07:09:15;101167.75;;;21.85;50.14
74678;BME280;63207;56.328;43.994;2022-09-03T07:11:43;101168.56;;;21.85;50.14
74678;BME280;63207;56.328;43.994;2022-09-03T07:14:12;101166.78;;;21.86;50.06
74678;BME280;63207;56.328;43.994;2022-09-03T07:16:39;101160.84;;;21.84;50.24
74678;BME280;63207;56.328;43.994;2022-09-03T07:19:06;101167.75;;;21.85;50.15
74678;BME280;63207;56.328;43.994;2022-09-03T07:21:34;101159.03;;;21.84;50.16
74678;BME280;63207;56.328;43.994;2022-09-03T07:24:07;101167.75;;;21.85;50.06
74678;BME280;63207;56.328;43.994;2022-09-03T07:26:38;101177.47;;;21.84;50.14
74678;BME280;63207;56.328;43.994;2022-09-03T07:29:05;101181.06;;;21.83;50.19
74678;BME280;63207;56.328;43.994;2022-09-03T07:31:36;101177.47;;;21.84;50.07
74678;BME280;63207;56.328;43.994;2022-09-03T07:34:07;101169.69;;;21.83;50.20
74678;BME280;63207;56.328;43.994;2022-09-03T07:36:42;101173.16;;;21.83;50.28
74678;BME280;63207;56.328;43.994;2022-09-03T07:39:09;101179.28;;;21.84;50.17
74678;BME280;63207;56.328;43.994;2022-09-03T07:41:57;101174.97;;;21.83;50.21
74678;BME280;63207;56.328;43.994;2022-09-03T07:44:24;101175.78;;;21.83;50.26
74678;BME280;63207;56.328;43.994;2022-09-03T07:47:08;101172.47;;;21.81;50.16
74678;BME280;63207;56.328;43.994;2022-09-03T07:49:52;101175.25;;;21.80;50.15
74678;BME280;63207;56.328;43.994;2022-09-03T07:52:18;101182.16;;;21.81;50.20
74678;BME280;63207;56.328;43.994;2022-09-03T07:54:44;101172.47;;;21.81;50.19
74678;BME280;63207;56.328;43.994;2022-09-03T07:57:10;101170.94;;;21.79;50.31
74678;BME280;63207;56.328;43.994;2022-09-03T07:59:36;101173.56;;;21.79;50.21
74678;BME280;63207;56.328;43.994;2022-09-03T08:02:02;101184.81;;;21.81;50.42
74678;BME280;63207;56.328;43.994;2022-09-03T08:04:29;101181.91;;;21.84;50.54
74678;BME280;63207;56.328;43.994;2022-09-03T08:06:56;101183.25;;;21.88;50.94
74678;BME280;63207;56.328;43.994;2022-09-03T08:09:23;101185.47;;;21.92;51.11
74678;BME280;63207;56.328;43.994;2022-09-03T08:11:49;101191.44;;;21.94;51.09
74678;BME280;63207;56.328;43.994;2022-09-03T08:14:15;101192.84;;;21.99;51.59
74678;BME280;63207;56.328;43.994;2022-09-03T08:16:45;101194.34;;;22.01;51.80
74678;BME280;63207;56.328;43.994;2022-09-03T08:19:14;101189.91;;;22.02;51.70
74678;BME280;63207;56.328;43.994;2022-09-03T08:21:40;101192.53;;;22.02;51.61
74678;BME280;63207;56.328;43.994;2022-09-03T08:24:06;101188.22;;;22.01;51.55
74678;BME280;63207;56.328;43.994;2022-09-03T08:26:35;101192.66;;;22.00;51.52
74678;BME280;63207;56.328;43.994;2022-09-03T08:29:01;101205.84;;;22.00;51.64
74678;BME280;63207;56.328;43.994;2022-09-03T08:31:45;101206.84;;;21.99;51.73
74678;BME280;63207;56.328;43.994;2022-09-03T08:34:11;101206.00;;;21.99;51.72
74678;BME280;63207;56.328;43.994;2022-09-03T08:36:39;101213.91;;;21.99;51.72
74678;BME280;63207;56.328;43.994;2022-09-03T08:39:09;101207.78;;;21.98;51.77
74678;BME280;63207;56.328;43.994;2022-09-03T08:55:22;101221.38;;;21.93;51.74
74678;BME280;63207;56.328;43.994;2022-09-03T09:00:28;101222.34;;;21.92;51.85
74678;BME280;63207;56.328;43.994;2022-09-03T09:14:50;101226.94;;;21.90;51.72
74678;BME280;63207;56.328;43.994;2022-09-03T09:17:26;101232.19;;;21.90;51.77
74678;BME280;63207;56.328;43.994;2022-09-03T09:20:50;101224.47;;;21.89;51.75
74678;BME280;63207;56.328;43.994;2022-09-03T09:25:53;101230.53;;;21.89;51.74
74678;BME280;63207;56.328;43.994;2022-09-03T09:28:21;101222.78;;;21.88;51.83
74678;BME280;63207;56.328;43.994;2022-09-03T09:30:49;101221.81;;;21.89;51.78
74678;BME280;63207;56.328;43.994;2022-09-03T09:33:34;101216.69;;;21.87;51.81
74678;BME280;63207;56.328;43.994;2022-09-03T09:36:03;101225.41;;;21.88;51.70
74678;BME280;63207;56.328;43.994;2022-09-03T09:38:33;101228.03;;;21.88;51.82
74678;BME280;63207;56.328;43.994;2022-09-03T09:43:41;101221.13;;;21.87;51.81
74678;BME280;63207;56.328;43.994;2022-09-03T09:46:21;101233.47;;;21.86;51.73
74678;BME280;63207;56.328;43.994;2022-09-03T09:48:55;101234.28;;;21.87;51.67
74678;BME280;63207;56.328;43.994;2022-09-03T09:51:25;101234.28;;;21.87;51.70
74678;BME280;63207;56.328;43.994;2022-09-03T09:54:12;101234.28;;;21.87;51.74
74678;BME280;63207;56.328;43.994;2022-09-03T09:56:41;101230.69;;;21.88;51.82
74678;BME280;63207;56.328;43.994;2022-09-03T09:59:13;101230.84;;;21.86;51.76
74678;BME280;63207;56.328;43.994;2022-09-03T10:01:43;101242.19;;;21.87;51.72
74678;BME280;63207;56.328;43.994;2022-09-03T10:07:04;101231.66;;;21.87;51.63
74678;BME280;63207;56.328;43.994;2022-09-03T10:09:32;101228.19;;;21.86;51.66
74678;BME280;63207;56.328;43.994;2022-09-03T10:12:23;101227.34;;;21.86;51.69
74678;BME280;63207;56.328;43.994;2022-09-03T10:15:36;101221.41;;;21.84;51.56
74678;BME280;63207;56.328;43.994;2022-09-03T10:18:15;101227.50;;;21.84;51.63
74678;BME280;63207;56.328;43.994;2022-09-03T10:21:03;101230.13;;;21.84;51.67
74678;BME280;63207;56.328;43.994;2022-09-03T10:26:41;101225.81;;;21.83;51.62
74678;BME280;63207;56.328;43.994;2022-09-03T10:29:09;101230.13;;;21.84;51.61
74678;BME280;63207;56.328;43.994;2022-09-03T10:38:07;101225.81;;;21.83;51.56
74678;BME280;63207;56.328;43.994;2022-09-03T10:40:21;101229.31;;;21.84;51.59
74678;BME280;63207;56.328;43.994;2022-09-03T10:45:53;101234.72;;;21.82;51.58
74678;BME280;63207;56.328;43.994;2022-09-03T10:54:04;101223.19;;;21.83;51.66
74678;BME280;63207;56.328;43.994;2022-09-03T11:00:07;101231.25;;;21.82;51.72
74678;BME280;63207;56.328;43.994;2022-09-03T11:11:15;101237.34;;;21.82;51.53
74678;BME280;63207;56.328;43.994;2022-09-03T11:13:52;101229.44;;;21.82;51.72
74678;BME280;63207;56.328;43.994;2022-09-03T11:16:47;101220.72;;;21.82;51.69
74678;BME280;63207;56.328;43.994;2022-09-03T11:19:26;101225.97;;;21.82;51.66
74678;BME280;63207;56.328;43.994;2022-09-03T11:21:57;101223.34;;;21.82;51.59
74678;BME280;63207;56.328;43.994;2022-09-03T11:24:43;101211.84;;;21.83;51.57
74678;BME280;63207;56.328;43.994;2022-09-03T11:27:19;101218.91;;;21.82;51.70
74678;BME280;63207;56.328;43.994;2022-09-03T11:30:08;101220.56;;;21.83;51.66
74678;BME280;63207;56.328;43.994;2022-09-03T11:48:44;101209.19;;;21.83;51.74
74678;BME280;63207;56.328;43.994;2022-09-03T11:54:01;101202.28;;;21.82;51.59
74678;BME280;63207;56.328;43.994;2022-09-03T11:56:46;101206.56;;;21.83;51.66
74678;BME280;63207;56.328;43.994;2022-09-03T11:59:18;101203.09;;;21.82;51.58
74678;BME280;63207;56.328;43.994;2022-09-03T12:05:25;101205.75;;;21.82;51.58
74678;BME280;63207;56.328;43.994;2022-09-03T12:07:45;101206.69;;;21.81;51.62
74678;BME280;63207;56.328;43.994;2022-09-03T12:10:26;101204.06;;;21.81;51.64
74678;BME280;63207;56.328;43.994;2022-09-03T12:18:36;101207.53;;;21.82;51.67
74678;BME280;63207;56.328;43.994;2022-09-03T12:21:04;101204.91;;;21.82;51.62
74678;BME280;63207;56.328;43.994;2022-09-03T12:26:21;101208.38;;;21.82;51.71
74678;BME280;63207;56.328;43.994;2022-09-03T12:28:53;101213.63;;;21.82;51.67
74678;BME280;63207;56.328;43.994;2022-09-03T12:31:25;101217.22;;;21.81;51.54
74678;BME280;63207;56.328;43.994;2022-09-03T12:33:54;101214.75;;;21.80;51.63
74678;BME280;63207;56.328;43.994;2022-09-03T12:36:24;101221.66;;;21.81;51.40
74678;BME280;63207;56.328;43.994;2022-09-03T12:38:51;101214.75;;;21.80;51.63
74678;BME280;63207;56.328;43.994;2022-09-03T12:41:21;101214.75;;;21.80;51.56
74678;BME280;63207;56.328;43.994;2022-09-03T12:43:55;101219.19;;;21.79;51.62
74678;BME280;63207;56.328;43.994;2022-09-03T12:46:23;101220.03;;;21.80;51.69
74678;BME280;63207;56.328;43.994;2022-09-03T12:49:00;101212.81;;;21.82;51.67
74678;BME280;63207;56.328;43.994;2022-09-03T12:51:40;101216.41;;;21.81;51.60
74678;BME280;63207;56.328;43.994;2022-09-03T12:54:09;101217.22;;;21.81;51.62
74678;BME280;63207;56.328;43.994;2022-09-03T12:56:51;101211.97;;;21.81;51.69
74678;BME280;63207;56.328;43.994;2022-09-03T12:59:20;101211.28;;;21.79;51.64
74678;BME280;63207;56.328;43.994;2022-09-03T13:04:16;101208.66;;;21.79;51.53
74678;BME280;63207;56.328;43.994;2022-09-03T13:09:32;101206.84;;;21.80;51.47
74678;BME280;63207;56.328;43.994;2022-09-03T13:12:01;101206.69;;;21.81;51.57
74678;BME280;63207;56.328;43.994;2022-09-03T13:14:44;101207.69;;;21.80;51.56
74678;BME280;63207;56.328;43.994;2022-09-03T13:17:17;101208.50;;;21.81;51.65
74678;BME280;63207;56.328;43.994;2022-09-03T13:22:56;101206.69;;;21.81;51.51
74678;BME280;63207;56.328;43.994;2022-09-03T13:26:02;101206.84;;;21.80;51.70
74678;BME280;63207;56.328;43.994;2022-09-03T13:31:46;101208.66;;;21.79;51.48
74678;BME280;63207;56.328;43.994;2022-09-03T13:34:19;101203.41;;;21.79;51.51
74678;BME280;63207;56.328;43.994;2022-09-03T13:37:10;101210.44;;;21.79;51.52
74678;BME280;63207;56.328;43.994;2022-09-03T13:39:51;101205.16;;;21.79;51.52
74678;BME280;63207;56.328;43.994;2022-09-03T13:42:37;101204.34;;;21.78;51.48
74678;BME280;63207;56.328;43.994;2022-09-03T13:45:40;101202.53;;;21.79;51.50
74678;BME280;63207;56.328;43.994;2022-09-03T13:54:17;101206.03;;;21.79;51.55
74678;BME280;63207;56.328;43.994;2022-09-03T13:59:28;101193.81;;;21.78;51.55
74678;BME280;63207;56.328;43.994;2022-09-03T14:02:22;101196.44;;;21.78;51.69
74678;BME280;63207;56.328;43.994;2022-09-03T14:10:51;101198.38;;;21.76;48.71
74678;BME280;63207;56.328;43.994;2022-09-03T14:18:44;101193.84;;;21.49;44.92
74678;BME280;63207;56.328;43.994;2022-09-03T14:21:32;101193.97;;;21.47;45.18
74678;BME280;63207;56.328;43.994;2022-09-03T14:24:11;101193.00;;;21.48;45.44
74678;BME280;63207;56.328;43.994;2022-09-03T14:26:50;101191.63;;;21.54;46.66
74678;BME280;63207;56.328;43.994;2022-09-03T14:29:22;101191.06;;;21.60;46.62
74678;BME280;63207;56.328;43.994;2022-09-03T14:35:14;101182.19;;;21.61;44.73
74678;BME280;63207;56.328;43.994;2022-09-03T14:40:29;101181.09;;;21.54;44.49
74678;BME280;63207;56.328;43.994;2022-09-03T14:48:35;101173.34;;;21.53;43.73
74678;BME280;63207;56.328;43.994;2022-09-03T14:56:40;101184.84;;;21.52;43.76
74678;BME280;63207;56.328;43.994;2022-09-03T15:10:17;101182.75;;;21.45;45.02
74678;BME280;63207;56.328;43.994;2022-09-03T15:13:08;101180.41;;;21.52;44.99
74678;BME280;63207;56.328;43.994;2022-09-03T15:20:57;101184.56;;;21.64;45.31
74678;BME280;63207;56.328;43.994;2022-09-03T15:34:51;101181.50;;;21.69;46.26
74678;BME280;63207;56.328;43.994;2022-09-03T15:40:35;101181.50;;;21.69;46.37
74678;BME280;63207;56.328;43.994;2022-09-03T15:43:29;101190.22;;;21.69;46.44
74678;BME280;63207;56.328;43.994;2022-09-03T15:45:58;101194.69;;;21.69;46.43
74678;BME280;63207;56.328;43.994;2022-09-03T15:48:47;101192.88;;;21.69;46.62
74678;BME280;63207;56.328;43.994;2022-09-03T15:51:44;101188.44;;;21.70;46.71
74678;BME280;63207;56.328;43.994;2022-09-03T15:54:20;101190.22;;;21.69;46.66
74678;BME280;63207;56.328;43.994;2022-09-03T15:57:02;101188.44;;;21.70;46.73
74678;BME280;63207;56.328;43.994;2022-09-03T16:14:07;101204.22;;;21.70;47.06
74678;BME280;63207;56.328;43.994;2022-09-03T16:17:17;101205.06;;;21.70;47.15
74678;BME280;63207;56.328;43.994;2022-09-03T16:22:47;101203.41;;;21.69;47.42
74678;BME280;63207;56.328;43.994;2022-09-03T16:25:30;101204.22;;;21.70;47.36
74678;BME280;63207;56.328;43.994;2022-09-03T16:28:24;101204.22;;;21.70;47.27
74678;BME280;63207;56.328;43.994;2022-09-03T16:40:48;101222.66;;;21.70;47.53
74678;BME280;63207;56.328;43.994;2022-09-03T16:43:32;101220.03;;;21.70;47.56
74678;BME280;63207;56.328;43.994;2022-09-03T16:46:31;101227.94;;;21.70;47.56
74678;BME280;63207;56.328;43.994;2022-09-03T16:51:50;101232.38;;;21.69;47.71
74678;BME280;63207;56.328;43.994;2022-09-03T16:55:17;101232.38;;;21.69;47.82
74678;BME280;63207;56.328;43.994;2022-09-03T16:57:35;101233.19;;;21.70;47.69
74678;BME280;63207;56.328;43.994;2022-09-03T17:00:09;101235.81;;;21.70;47.79
74678;BME280;63207;56.328;43.994;2022-09-03T17:14:51;101241.09;;;21.70;48.09
74678;BME280;63207;56.328;43.994;2022-09-03T17:20:05;101237.63;;;21.69;48.02
74678;BME280;63207;56.328;43.994;2022-09-03T17:25:40;101242.91;;;21.69;48.14
74678;BME280;63207;56.328;43.994;2022-09-03T17:28:23;101243.72;;;21.70;48.29
74678;BME280;63207;56.328;43.994;2022-09-03T17:38:06;101244.72;;;21.69;48.15
74678;BME280;63207;56.328;43.994;2022-09-03T17:40:06;101240.38;;;21.68;48.16
74678;BME280;63207;56.328;43.994;2022-09-03T17:43:02;101237.75;;;21.68;48.32
74678;BME280;63207;56.328;43.994;2022-09-03T17:45:39;101240.38;;;21.68;48.48
74678;BME280;63207;56.328;43.994;2022-09-03T17:51:35;101243.03;;;21.68;48.54
74678;BME280;63207;56.328;43.994;2022-09-03T17:56:53;101235.94;;;21.68;48.43
74678;BME280;63207;56.328;43.994;2022-09-03T18:00:30;101229.84;;;21.68;48.44
74678;BME280;63207;56.328;43.994;2022-09-03T18:03:04;101230.84;;;21.67;48.50
74678;BME280;63207;56.328;43.994;2022-09-03T18:05:48;101229.03;;;21.67;48.66
74678;BME280;63207;56.328;43.994;2022-09-03T18:08:50;101221.97;;;21.68;48.63
74678;BME280;63207;56.328;43.994;2022-09-03T18:11:22;101220.31;;;21.67;48.50
74678;BME280;63207;56.328;43.994;2022-09-03T18:16:34;101232.50;;;21.68;48.66
74678;BME280;63207;56.328;43.994;2022-09-03T18:19:35;101222.78;;;21.68;48.59
74678;BME280;63207;56.328;43.994;2022-09-03T18:22:24;101215.03;;;21.67;48.77
74678;BME280;63207;56.328;43.994;2022-09-03T18:25:13;101220.31;;;21.67;48.74
74678;BME280;63207;56.328;43.994;2022-09-03T18:28:02;101216.84;;;21.66;48.85